Marcus Hook, Pennsylvania
Current Conditions -  °F | °C
As of 9:54 PM on Wednesday 26 Nov 2014 (Local Time) from KPHL Reporting Station
Overcast Overcast  
Wind Chill: 30°   Ceiling: 8000
Heat Index: 37°   Visibility: 10mi
Dew Point: 32°   Wind: 9mph
Humidity: 82%   Direction: 330°NNW
Pressure: 29.88"   Gusts: NA
Location:  39.82°N, 75.42°W
Report Text: KPHL 270254Z 33008KT 10SM SCT065 OVC080 03/00 A2988 RMK AO2 SLP118 60001 T00280000 51004 $
Loading
Personal Weather Stations






























Interactive Weather Map New forecast layout! Learn more

10-Day Weather Forecast

Advertisements
Track Severe Weather on mobile